Frontier Kotobuki — 3EXC5 — position and weather

sailwx.info

Track history (hours):
 
Tides and Currents Weather Stations Pressure Air Temp Water Temp Dewpoint Dewpoint Depression Visibility Wind Speed Wind Dir Waves Ship Positions

Frontier Kotobuki

Last reported at 2014-Sep-07 03:11 UTC. Time now 2014-Oct-02 00:34 UTC.
Position S 34°32' E 025°08'.
Warning: this ship's position is 24 days out of date.

Length 290 m; draft 18 m.

Type: Cargo ship. MMSI: 355036000.

Date/timePositionNaut miles runAvg speedWind from/ knotsBaromVisibWave heightAir tempDewpointWater temp
2014-Sep-07 03:11S 34°32' E 025°08'8910.1
2014-Sep-06 18:23S 34°52' E 023°23'16811.1
2014-Sep-06 03:09S 35°09' E 019°58'710.9
2014-Sep-06 02:31S 35°07' E 019°50'1110.7
2014-Sep-06 01:30S 35°01' E 019°39'1311.0
2014-Sep-06 00:20S 34°55' E 019°25'1111.2
2014-Sep-05 23:24S 34°50' E 019°14'1011.2
2014-Sep-05 22:32S 34°46' E 019°03'1111.2
2014-Sep-05 21:33S 34°41' E 018°51'1111.1
2014-Sep-05 20:33S 34°35' E 018°40'1211.3
2014-Sep-05 19:31S 34°30' E 018°27'1111.0
2014-Sep-05 18:32S 34°25' E 018°15'1010.4
2014-Sep-05 17:33S 34°17' E 018°07'1111.1
2014-Sep-05 16:33S 34°06' E 018°04'1211.4
2014-Sep-05 15:31S 33°55' E 018°01'1111.1
2014-Sep-05 14:32S 33°44' E 017°58'1211.2
2014-Sep-05 13:29S 33°33' E 017°55'1111.0
2014-Sep-05 12:27S 33°22' E 017°52'21 1.2
2014-Sep-04 18:21S 33°02' E 017°59'0 0.0
2014-Sep-04 02:21S 33°02' E 017°59'0 0.0
2014-Sep-03 16:09S 33°02' E 017°59'20 0.8
2014-Sep-02 14:25S 32°46' E 017°44'  
2014-Aug-28 09:21S 33°42' E 017°59'2010.9
2014-Aug-28 07:32S 34°01' E 018°04'9 9.5
2014-Aug-28 06:33S 34°10' E 018°07'1010.5
2014-Aug-28 05:33S 34°20' E 018°10'8 8.3
2014-Aug-28 04:33S 34°25' E 018°19'9 8.4
2014-Aug-28 03:29S 34°29' E 018°29'  
Track history (hours):
 
Tides and Currents Weather Stations Pressure Air Temp Water Temp Dewpoint Dewpoint Depression Visibility Wind Speed Wind Dir Waves Ship Positions

Frontier Kotobuki

Last reported at 2014-Sep-07 03:11 UTC. Time now 2014-Oct-02 00:34 UTC.
Position S 34°32' E 025°08'.
Warning: this ship's position is 24 days out of date.

Length 290 m; draft 18 m.

Type: Cargo ship. MMSI: 355036000.

Date/timePositionNaut miles runAvg speedWind from/ knotsBaromVisibWave heightAir tempDewpointWater temp
2014-Sep-07 03:11S 34°32' E 025°08'8910.1
2014-Sep-06 18:23S 34°52' E 023°23'16811.1
2014-Sep-06 03:09S 35°09' E 019°58'710.9
2014-Sep-06 02:31S 35°07' E 019°50'1110.7
2014-Sep-06 01:30S 35°01' E 019°39'1311.0
2014-Sep-06 00:20S 34°55' E 019°25'1111.2
2014-Sep-05 23:24S 34°50' E 019°14'1011.2
2014-Sep-05 22:32S 34°46' E 019°03'1111.2
2014-Sep-05 21:33S 34°41' E 018°51'1111.1
2014-Sep-05 20:33S 34°35' E 018°40'1211.3
2014-Sep-05 19:31S 34°30' E 018°27'1111.0
2014-Sep-05 18:32S 34°25' E 018°15'1010.4
2014-Sep-05 17:33S 34°17' E 018°07'1111.1
2014-Sep-05 16:33S 34°06' E 018°04'1211.4
2014-Sep-05 15:31S 33°55' E 018°01'1111.1
2014-Sep-05 14:32S 33°44' E 017°58'1211.2
2014-Sep-05 13:29S 33°33' E 017°55'1111.0
2014-Sep-05 12:27S 33°22' E 017°52'21 1.2
2014-Sep-04 18:21S 33°02' E 017°59'0 0.0
2014-Sep-04 02:21S 33°02' E 017°59'0 0.0
2014-Sep-03 16:09S 33°02' E 017°59'20 0.8
2014-Sep-02 14:25S 32°46' E 017°44'  
2014-Aug-28 09:21S 33°42' E 017°59'2010.9
2014-Aug-28 07:32S 34°01' E 018°04'9 9.5
2014-Aug-28 06:33S 34°10' E 018°07'1010.5
2014-Aug-28 05:33S 34°20' E 018°10'8 8.3
2014-Aug-28 04:33S 34°25' E 018°19'9 8.4
2014-Aug-28 03:29S 34°29' E 018°29'  

Dump ship's entire track history